sim
Sign-in with your pilot id or email,
or register
Callsign
Passwort

Schedule Details

Flight Number: DLH2295
Departure: Brussels Airport (EBBR) at 05:00
Arrival: Munich Airport (EDDM) at 06:15
Route: Lufthansa Passenger Schedule. Enter filed route here before submitting Pirep.

Weather Information
Getting current METAR information for EBBR 201720Z 06005KT CAVOK 21/06 Q1016 NOSIG
Getting current METAR information for EDDM 201720Z 03003KT 360V060 CAVOK 19/11 Q1015 NOSIG

Schedule Frequency

Route Map